createdAt,value
2023-01-03T00:01:59.631Z,10.23
2023-01-03T00:04:26.296Z,10.19
2023-01-03T00:06:53.279Z,10.27
2023-01-03T00:09:24.821Z,10.22
2023-01-03T00:12:10.720Z,10.19
2023-01-03T00:14:41.396Z,10.35
2023-01-03T00:17:08.244Z,10.23
2023-01-03T00:19:38.717Z,10.21
2023-01-03T00:22:05.619Z,10.00
2023-01-03T00:24:32.242Z,10.07
2023-01-03T00:26:58.783Z,10.10
2023-01-03T00:29:25.393Z,10.04
2023-01-03T00:31:52.033Z,9.98
2023-01-03T00:34:18.644Z,10.08
2023-01-03T00:36:45.224Z,9.99
2023-01-03T00:39:14.672Z,9.97
2023-01-03T00:41:41.267Z,9.88
2023-01-03T00:44:08.007Z,9.94
2023-01-03T00:46:34.644Z,9.83
2023-01-03T00:49:01.602Z,9.95
2023-01-03T00:51:30.831Z,9.95
2023-01-03T00:53:57.771Z,9.75
2023-01-03T00:56:25.423Z,9.89
2023-01-03T00:58:53.017Z,9.89
2023-01-03T01:01:20.548Z,9.93
2023-01-03T01:03:48.419Z,9.98
2023-01-03T01:06:14.964Z,9.91
2023-01-03T01:08:41.987Z,10.02
2023-01-03T01:11:08.972Z,10.21
2023-01-03T01:13:35.770Z,10.23
2023-01-03T01:16:06.227Z,10.06
2023-01-03T01:18:32.857Z,10.10
2023-01-03T01:20:59.410Z,10.15
2023-01-03T01:23:25.959Z,9.97
2023-01-03T01:25:52.475Z,9.98
2023-01-03T01:28:19.011Z,9.99
2023-01-03T01:30:45.578Z,10.14
2023-01-03T01:33:12.148Z,9.99
2023-01-03T01:35:38.689Z,9.98
2023-01-03T01:38:05.752Z,10.05
2023-01-03T01:40:32.336Z,10.02
2023-01-03T01:43:17.914Z,10.02
2023-01-03T01:45:50.895Z,9.92
2023-01-03T01:48:17.944Z,10.06
2023-01-03T01:50:45.996Z,9.98
2023-01-03T01:53:16.508Z,9.92
2023-01-03T01:55:46.320Z,10.06
2023-01-03T01:58:12.957Z,10.05
2023-01-03T02:00:39.978Z,9.98
2023-01-03T02:03:06.720Z,9.99
2023-01-03T02:05:34.437Z,10.00
2023-01-03T02:08:00.992Z,9.92
2023-01-03T02:10:50.862Z,9.89
2023-01-03T02:13:22.769Z,9.91
2023-01-03T02:16:12.145Z,9.89
2023-01-03T02:18:47.767Z,9.84
2023-01-03T02:21:19.577Z,9.86
2023-01-03T02:23:55.530Z,9.85
2023-01-03T02:26:27.699Z,9.93
2023-01-03T02:29:13.468Z,9.95
2023-01-03T02:31:48.859Z,10.03
2023-01-03T02:34:21.547Z,10.08
2023-01-03T02:37:04.031Z,10.04
2023-01-03T02:39:40.770Z,10.00
2023-01-03T02:42:30.675Z,10.05
2023-01-03T02:45:11.662Z,9.86
2023-01-03T02:47:46.404Z,9.83
2023-01-03T02:50:13.172Z,9.75
2023-01-03T02:52:39.804Z,9.63
2023-01-03T02:55:08.288Z,9.65
2023-01-03T02:57:46.076Z,9.44
2023-01-03T03:00:13.577Z,9.59
2023-01-03T03:02:40.411Z,9.44
2023-01-03T03:05:08.172Z,9.59
2023-01-03T03:07:35.698Z,9.49
2023-01-03T03:10:21.227Z,9.45
2023-01-03T03:13:06.915Z,9.54
2023-01-03T03:15:38.097Z,9.45
2023-01-03T03:18:06.205Z,9.44
2023-01-03T03:20:51.479Z,9.44
2023-01-03T03:23:37.053Z,9.46
2023-01-03T03:26:29.889Z,9.40
2023-01-03T03:28:58.014Z,9.33
2023-01-03T03:31:30.231Z,9.37
2023-01-03T03:33:56.756Z,9.38
2023-01-03T03:36:28.419Z,9.60
2023-01-03T03:38:54.951Z,9.55
2023-01-03T03:41:41.619Z,9.63
2023-01-03T03:44:30.665Z,9.51
2023-01-03T03:47:04.115Z,9.52
2023-01-03T03:49:40.354Z,9.41
2023-01-03T03:52:08.442Z,9.49
2023-01-03T03:54:35.791Z,9.22
2023-01-03T03:57:22.674Z,9.19
2023-01-03T03:59:50.245Z,9.13
2023-01-03T04:02:16.929Z,9.06
2023-01-03T04:04:44.703Z,8.92
2023-01-03T04:07:11.377Z,8.98
2023-01-03T04:09:37.923Z,8.73
2023-01-03T04:12:04.475Z,8.78
2023-01-03T04:14:31.308Z,8.75
2023-01-03T04:16:57.933Z,8.64
2023-01-03T04:19:24.566Z,8.61
2023-01-03T04:21:51.066Z,8.40
2023-01-03T04:24:20.322Z,8.44
2023-01-03T04:26:47.321Z,8.33
2023-01-03T04:29:13.912Z,8.30
2023-01-03T04:31:40.523Z,8.39
2023-01-03T04:34:07.170Z,8.41
2023-01-03T04:36:34.129Z,8.12
2023-01-03T04:39:00.632Z,7.89
2023-01-03T04:41:27.183Z,7.81
2023-01-03T04:44:04.313Z,7.81
2023-01-03T04:46:35.579Z,7.61
2023-01-03T04:49:02.314Z,7.58
2023-01-03T04:51:29.368Z,7.62
2023-01-03T04:53:55.926Z,7.63
2023-01-03T04:56:31.925Z,7.58
2023-01-03T04:58:58.543Z,7.62
2023-01-03T05:01:25.464Z,7.60
2023-01-03T05:03:52.092Z,7.52
2023-01-03T05:06:18.823Z,7.47
2023-01-03T05:08:46.751Z,7.46
2023-01-03T05:11:13.380Z,7.60
2023-01-03T05:13:39.925Z,7.59
2023-01-03T05:16:07.402Z,7.59
2023-01-03T05:18:34.346Z,7.79
2023-01-03T05:21:26.132Z,7.77
2023-01-03T05:24:11.471Z,7.77
2023-01-03T05:26:38.645Z,7.71
2023-01-03T05:29:05.164Z,7.60
2023-01-03T05:31:31.787Z,7.59
2023-01-03T05:33:58.354Z,7.62
2023-01-03T05:36:24.923Z,7.55
2023-01-03T05:38:51.469Z,7.51
2023-01-03T05:41:37.983Z,7.42
2023-01-03T05:44:04.613Z,7.39
2023-01-03T05:46:31.784Z,7.35
2023-01-03T05:48:58.636Z,7.43
2023-01-03T05:51:25.276Z,7.41
2023-01-03T05:53:51.817Z,7.33
2023-01-03T05:56:18.453Z,7.23
2023-01-03T05:58:44.984Z,7.21
2023-01-03T06:01:13.311Z,7.12
2023-01-03T06:03:39.905Z,7.19
2023-01-03T06:06:07.256Z,7.01
2023-01-03T06:08:33.948Z,7.14
2023-01-03T06:11:00.477Z,7.12
2023-01-03T06:13:27.209Z,7.17
2023-01-03T06:16:12.402Z,7.03
2023-01-03T06:18:38.955Z,7.03
2023-01-03T06:21:05.810Z,6.97
2023-01-03T06:23:32.340Z,7.07
2023-01-03T06:25:59.461Z,7.25
2023-01-03T06:28:25.984Z,7.09
2023-01-03T06:30:53.271Z,7.17
2023-01-03T06:33:19.854Z,7.04
2023-01-03T06:35:46.390Z,7.11
2023-01-03T06:38:12.935Z,7.12
2023-01-03T06:40:45.478Z,7.06
2023-01-03T06:43:12.276Z,7.22
2023-01-03T06:45:57.703Z,7.07
2023-01-03T06:48:42.880Z,7.27
2023-01-03T06:51:28.345Z,7.21
2023-01-03T06:53:54.876Z,7.04
2023-01-03T06:56:23.215Z,6.92
2023-01-03T06:58:49.739Z,6.99
2023-01-03T07:01:16.356Z,6.80
2023-01-03T07:03:43.005Z,6.76
2023-01-03T07:06:10.013Z,6.70
2023-01-03T07:08:36.591Z,6.63
2023-01-03T07:11:03.124Z,6.71
2023-01-03T07:13:48.205Z,6.75
2023-01-03T07:16:15.336Z,6.65
2023-01-03T07:18:41.996Z,6.46
2023-01-03T07:21:08.531Z,6.55
2023-01-03T07:23:35.146Z,6.54
2023-01-03T07:26:01.761Z,6.42
2023-01-03T07:28:28.297Z,6.52
2023-01-03T07:30:59.680Z,6.62
2023-01-03T07:33:26.232Z,6.71
2023-01-03T07:35:52.785Z,6.65
2023-01-03T07:38:19.398Z,6.71
2023-01-03T07:40:45.931Z,6.89
2023-01-03T07:43:31.003Z,7.01
2023-01-03T07:45:57.664Z,7.09
2023-01-03T07:48:24.255Z,7.15
2023-01-03T07:50:50.817Z,7.24
2023-01-03T07:53:18.109Z,7.28
2023-01-03T07:55:45.596Z,7.40
2023-01-03T07:58:12.460Z,7.48
2023-01-03T08:00:39.467Z,7.64
2023-01-03T08:03:10.602Z,7.68
2023-01-03T08:05:37.803Z,7.78
2023-01-03T08:08:04.572Z,7.94
2023-01-03T08:10:49.928Z,7.91
2023-01-03T08:13:19.693Z,8.11
2023-01-03T08:15:46.376Z,8.23
2023-01-03T08:18:13.034Z,8.20
2023-01-03T08:20:39.836Z,8.06
2023-01-03T08:23:06.399Z,8.18
2023-01-03T08:25:32.915Z,8.15
2023-01-03T08:27:59.852Z,8.27
2023-01-03T08:30:26.428Z,8.27
2023-01-03T08:32:53.447Z,8.31
2023-01-03T08:35:20.037Z,8.27
2023-01-03T08:37:46.599Z,8.21
2023-01-03T08:40:13.193Z,8.31
2023-01-03T08:42:39.725Z,8.44
2023-01-03T08:45:07.014Z,8.29
2023-01-03T08:47:33.570Z,8.22
2023-01-03T08:50:00.167Z,8.12
2023-01-03T08:52:31.594Z,8.18
2023-01-03T08:55:01.264Z,8.16
2023-01-03T08:57:27.778Z,8.30
2023-01-03T08:59:57.307Z,8.31
2023-01-03T09:02:26.026Z,8.29
2023-01-03T09:04:53.144Z,8.06
2023-01-03T09:07:19.818Z,8.13
2023-01-03T09:09:46.725Z,8.20
2023-01-03T09:12:13.888Z,8.26
2023-01-03T09:14:40.599Z,8.32
2023-01-03T09:17:07.307Z,8.40
2023-01-03T09:19:35.303Z,8.45
2023-01-03T09:22:02.087Z,8.53
2023-01-03T09:24:36.635Z,8.66
2023-01-03T09:27:26.567Z,8.57
2023-01-03T09:29:53.950Z,8.69
2023-01-03T09:32:20.853Z,8.79
2023-01-03T09:35:01.000Z,8.70
2023-01-03T09:37:35.670Z,8.96
2023-01-03T09:40:02.574Z,8.92
2023-01-03T09:42:47.836Z,8.96
2023-01-03T09:45:18.288Z,9.00
2023-01-03T09:47:44.934Z,9.04
2023-01-03T09:50:50.718Z,9.08
2023-01-03T09:53:24.406Z,9.13
2023-01-03T09:56:26.691Z,9.31
2023-01-03T09:59:13.255Z,9.28
2023-01-03T10:02:11.051Z,9.40
2023-01-03T10:04:42.551Z,9.42
2023-01-03T10:07:24.776Z,9.61
2023-01-03T10:09:51.826Z,9.62
2023-01-03T10:12:22.677Z,9.43
2023-01-03T10:14:55.469Z,9.55
2023-01-03T10:17:43.047Z,9.44
2023-01-03T10:20:09.604Z,9.30
2023-01-03T10:22:36.240Z,9.11
2023-01-03T10:25:10.808Z,9.33
2023-01-03T10:28:09.690Z,9.35
2023-01-03T10:31:00.817Z,9.32
2023-01-03T10:33:36.826Z,9.25
2023-01-03T10:36:03.412Z,9.29
2023-01-03T10:38:30.120Z,9.29
2023-01-03T10:40:57.921Z,9.43
2023-01-03T10:43:32.599Z,9.51
2023-01-03T10:46:00.646Z,9.92
2023-01-03T10:48:52.591Z,10.24
2023-01-03T10:51:21.520Z,10.74
2023-01-03T10:53:48.100Z,11.14
2023-01-03T10:56:15.109Z,11.36
2023-01-03T10:58:42.010Z,11.04
2023-01-03T11:01:11.842Z,10.77
2023-01-03T11:03:51.358Z,10.75
2023-01-03T11:06:18.232Z,10.90
2023-01-03T11:08:45.529Z,11.01
2023-01-03T11:11:35.390Z,11.15
2023-01-03T11:14:19.389Z,11.20
2023-01-03T11:16:46.027Z,11.28
2023-01-03T11:19:16.689Z,11.27
2023-01-03T11:21:48.919Z,11.28
2023-01-03T11:24:24.860Z,11.26
2023-01-03T11:26:56.081Z,11.30
2023-01-03T11:29:37.994Z,11.16
2023-01-03T11:32:17.745Z,11.17
2023-01-03T11:38:08.180Z,11.11
2023-01-03T11:40:53.364Z,11.34
2023-01-03T11:43:25.505Z,11.36
2023-01-03T11:46:10.803Z,11.49
2023-01-03T11:48:49.233Z,11.55
2023-01-03T11:51:18.559Z,11.61
2023-01-03T11:53:49.500Z,11.66
2023-01-03T11:56:16.838Z,11.64
2023-01-03T11:58:52.764Z,11.74
2023-01-03T12:01:39.830Z,11.58
2023-01-03T12:04:07.649Z,11.06
2023-01-03T12:06:34.420Z,11.19
2023-01-03T12:09:11.118Z,11.56
2023-01-03T12:11:59.953Z,11.67
2023-01-03T12:14:27.752Z,11.66
2023-01-03T12:17:00.116Z,11.80
2023-01-03T12:19:30.759Z,11.78
2023-01-03T12:22:01.596Z,11.76
2023-01-03T12:24:45.251Z,11.69
2023-01-03T12:27:14.894Z,11.74
2023-01-03T12:29:51.025Z,11.64
2023-01-03T12:32:19.085Z,11.54
2023-01-03T12:34:49.111Z,11.64
2023-01-03T12:37:18.706Z,11.70
2023-01-03T12:39:49.910Z,11.67
2023-01-03T12:42:25.564Z,11.48
2023-01-03T12:45:07.517Z,11.35
2023-01-03T12:47:34.019Z,11.67
2023-01-03T12:50:05.808Z,11.77
2023-01-03T12:52:32.606Z,11.43
2023-01-03T12:55:05.210Z,11.35
2023-01-03T12:57:42.472Z,11.45
2023-01-03T13:00:10.024Z,11.39
2023-01-03T13:02:36.811Z,11.52
2023-01-03T13:05:12.198Z,11.43
2023-01-03T13:07:39.845Z,11.61
2023-01-03T13:10:07.511Z,11.71
2023-01-03T13:12:37.044Z,11.76
2023-01-03T13:15:03.698Z,11.60
2023-01-03T13:17:30.961Z,11.45
2023-01-03T13:20:16.957Z,11.44
2023-01-03T13:22:44.722Z,11.20
2023-01-03T13:25:27.152Z,11.27
2023-01-03T13:27:55.883Z,11.46
2023-01-03T13:30:24.300Z,11.51
2023-01-03T13:32:52.813Z,11.54
2023-01-03T13:35:21.126Z,11.59
2023-01-03T13:37:48.642Z,11.58
2023-01-03T13:40:17.296Z,11.59
2023-01-03T13:42:43.946Z,11.54
2023-01-03T13:45:19.743Z,11.46
2023-01-03T13:47:49.683Z,11.33
2023-01-03T13:50:23.070Z,11.30
2023-01-03T13:52:55.751Z,11.13
2023-01-03T13:55:36.138Z,11.03
2023-01-03T13:58:03.367Z,10.92
2023-01-03T14:00:30.045Z,10.95
2023-01-03T14:03:05.996Z,10.70
2023-01-03T14:05:39.177Z,10.44
2023-01-03T14:08:23.840Z,10.30
2023-01-03T14:11:09.525Z,10.00
2023-01-03T14:13:38.055Z,9.79
2023-01-03T14:16:04.615Z,9.68
2023-01-03T14:18:31.219Z,9.56
2023-01-03T14:20:57.943Z,9.45
2023-01-03T14:26:17.162Z,9.47
2023-01-03T14:28:46.720Z,9.51
2023-01-03T14:31:21.489Z,9.45
2023-01-03T14:33:58.243Z,9.56
2023-01-03T14:36:24.961Z,9.59
2023-01-03T14:38:58.654Z,9.57
2023-01-03T14:41:31.112Z,9.60
2023-01-03T14:44:03.471Z,9.49
2023-01-03T14:46:30.314Z,9.52
2023-01-03T14:49:02.927Z,9.48
2023-01-03T14:51:31.426Z,9.44
2023-01-03T14:53:58.231Z,9.53
2023-01-03T14:56:25.088Z,9.49
2023-01-03T14:58:51.654Z,9.44
2023-01-03T15:01:18.372Z,9.48
2023-01-03T15:03:46.106Z,9.37
2023-01-03T15:06:31.433Z,9.32
2023-01-03T15:08:59.170Z,9.36
2023-01-03T15:11:31.841Z,9.27
2023-01-03T15:14:05.272Z,9.04
2023-01-03T15:16:33.541Z,8.96
2023-01-03T15:19:06.325Z,8.79
2023-01-03T15:21:32.848Z,8.79
2023-01-03T15:23:59.669Z,8.73
2023-01-03T15:26:27.533Z,8.68
2023-01-03T15:29:09.125Z,8.65
2023-01-03T15:31:37.317Z,8.67
2023-01-03T15:34:13.910Z,8.71
2023-01-03T15:36:40.513Z,8.75
2023-01-03T15:39:07.918Z,8.72
2023-01-03T15:42:19.720Z,8.79
2023-01-03T15:44:39.936Z,8.74
2023-01-03T15:47:07.472Z,8.69
2023-01-03T15:49:40.358Z,8.76
2023-01-03T15:52:07.427Z,8.79
2023-01-03T15:54:33.966Z,8.74
2023-01-03T15:57:04.631Z,8.77
2023-01-03T15:59:41.276Z,8.83
2023-01-03T16:02:17.349Z,8.97
2023-01-03T16:04:44.669Z,8.92
2023-01-03T16:07:11.518Z,8.97
2023-01-03T16:09:38.071Z,8.90
2023-01-03T16:12:04.807Z,8.75
2023-01-03T16:14:41.252Z,8.68
2023-01-03T16:17:08.646Z,8.77
2023-01-03T16:19:35.219Z,8.64
2023-01-03T16:22:33.299Z,8.40
2023-01-03T16:24:49.725Z,8.25
2023-01-03T16:27:17.254Z,8.06
2023-01-03T16:29:43.793Z,7.95
2023-01-03T16:32:21.421Z,8.07
2023-01-03T16:34:47.995Z,8.00
2023-01-03T16:37:14.531Z,7.94
2023-01-03T16:39:47.405Z,7.80
2023-01-03T16:42:15.133Z,7.77
2023-01-03T16:44:42.500Z,7.72
2023-01-03T16:47:27.916Z,7.79
2023-01-03T16:49:55.246Z,7.80
2023-01-03T16:52:25.891Z,7.86
2023-01-03T16:54:52.453Z,7.94
2023-01-03T16:57:19.566Z,8.01
2023-01-03T16:59:46.389Z,7.93
2023-01-03T17:02:14.220Z,8.04
2023-01-03T17:04:40.989Z,7.97
2023-01-03T17:07:09.859Z,7.94
2023-01-03T17:09:36.435Z,7.97
2023-01-03T17:12:03.710Z,7.94
2023-01-03T17:14:30.247Z,7.71
2023-01-03T17:16:59.770Z,7.63
2023-01-03T17:20:02.598Z,7.66
2023-01-03T17:22:14.165Z,7.58
2023-01-03T17:24:40.714Z,7.44
2023-01-03T17:27:10.035Z,7.28
2023-01-03T17:29:36.553Z,7.26
2023-01-03T17:32:03.100Z,7.31
2023-01-03T17:34:30.726Z,7.33
2023-01-03T17:36:57.943Z,7.29
2023-01-03T17:39:24.776Z,7.43
2023-01-03T17:42:10.219Z,7.41
2023-01-03T17:44:37.000Z,7.35
2023-01-03T17:47:38.935Z,7.19
2023-01-03T17:50:05.638Z,7.07
2023-01-03T17:52:35.929Z,7.04
2023-01-03T17:55:03.095Z,6.92
2023-01-03T17:57:29.715Z,6.80
2023-01-03T17:59:56.309Z,6.74
2023-01-03T18:02:23.736Z,6.75
2023-01-03T18:05:15.078Z,6.66
2023-01-03T18:07:37.738Z,6.69
2023-01-03T18:10:06.583Z,6.71
2023-01-03T18:12:33.090Z,6.76
2023-01-03T18:14:59.637Z,6.86
2023-01-03T18:17:30.276Z,6.89
2023-01-03T18:19:57.105Z,6.90
2023-01-03T18:22:24.186Z,6.89
2023-01-03T18:24:51.708Z,7.00
2023-01-03T18:27:18.597Z,6.97
2023-01-03T18:29:45.162Z,6.87
2023-01-03T18:32:28.220Z,6.91
2023-01-03T18:34:54.811Z,6.81
2023-01-03T18:37:21.750Z,6.74
2023-01-03T18:39:48.273Z,6.68
2023-01-03T18:42:33.360Z,6.64
2023-01-03T18:44:59.906Z,6.58
2023-01-03T18:47:26.626Z,6.63
2023-01-03T18:49:53.230Z,6.51
2023-01-03T18:52:24.261Z,6.59
2023-01-03T18:54:51.567Z,6.38
2023-01-03T18:57:18.654Z,6.26
2023-01-03T18:59:46.386Z,6.25
2023-01-03T19:02:16.303Z,6.31
2023-01-03T19:04:47.631Z,6.33
2023-01-03T19:07:18.406Z,6.32
2023-01-03T19:09:45.294Z,6.25
2023-01-03T19:12:18.050Z,6.20
2023-01-03T19:14:46.749Z,6.32
2023-01-03T19:17:17.550Z,6.32
2023-01-03T19:19:44.073Z,6.28
2023-01-03T19:22:13.355Z,6.24
2023-01-03T19:24:39.890Z,6.27
2023-01-03T19:27:06.365Z,6.22
2023-01-03T19:29:37.205Z,6.22
2023-01-03T19:32:05.108Z,6.18
2023-01-03T19:34:31.769Z,6.17
2023-01-03T19:36:58.334Z,6.14
2023-01-03T19:39:26.341Z,6.17
2023-01-03T19:42:14.953Z,6.20
2023-01-03T19:44:41.793Z,6.26
2023-01-03T19:47:15.829Z,6.28
2023-01-03T19:49:42.942Z,6.25
2023-01-03T19:52:09.600Z,6.20
2023-01-03T19:54:36.184Z,6.27
2023-01-03T19:57:02.763Z,6.29
2023-01-03T19:59:30.331Z,6.13
2023-01-03T20:02:26.589Z,6.00
2023-01-03T20:04:43.565Z,5.87
2023-01-03T20:07:16.649Z,5.80
2023-01-03T20:09:43.229Z,5.74
2023-01-03T20:12:10.072Z,5.69
2023-01-03T20:14:36.588Z,5.64
2023-01-03T20:17:03.119Z,5.50
2023-01-03T20:19:30.704Z,5.56
2023-01-03T20:21:57.276Z,5.66
2023-01-03T20:24:24.890Z,5.55
2023-01-03T20:26:51.656Z,5.66
2023-01-03T20:29:18.207Z,5.73
2023-01-03T20:31:44.827Z,5.67
2023-01-03T20:34:11.440Z,5.76
2023-01-03T20:36:41.111Z,5.81
2023-01-03T20:39:14.048Z,5.67
2023-01-03T20:41:40.645Z,5.84
2023-01-03T20:44:08.128Z,5.90
2023-01-03T20:46:34.740Z,5.86
2023-01-03T20:49:01.833Z,5.74
2023-01-03T20:51:29.340Z,5.72
2023-01-03T20:53:56.420Z,5.69
2023-01-03T20:56:23.157Z,5.68
2023-01-03T20:58:49.702Z,5.60
2023-01-03T21:01:16.380Z,5.52
2023-01-03T21:03:43.073Z,5.53
2023-01-03T21:06:16.193Z,5.53
2023-01-03T21:08:55.093Z,5.51
2023-01-03T21:11:24.444Z,5.54
2023-01-03T21:13:50.978Z,5.56
2023-01-03T21:16:37.353Z,5.60
2023-01-03T21:19:06.994Z,5.55
2023-01-03T21:21:33.861Z,5.64
2023-01-03T21:24:07.499Z,5.55
2023-01-03T21:26:34.082Z,5.49
2023-01-03T21:29:00.673Z,5.62
2023-01-03T21:31:29.541Z,5.48
2023-01-03T21:33:56.170Z,5.38
2023-01-03T21:36:24.441Z,5.23
2023-01-03T21:38:51.201Z,5.24
2023-01-03T21:41:19.012Z,5.03
2023-01-03T21:43:45.565Z,5.24
2023-01-03T21:46:14.929Z,5.24
2023-01-03T21:48:43.421Z,5.22
2023-01-03T21:51:10.090Z,5.16
2023-01-03T21:53:36.605Z,5.05
2023-01-03T21:56:29.348Z,5.19
2023-01-03T21:58:55.896Z,5.10
2023-01-03T22:01:22.993Z,4.85
2023-01-03T22:04:11.848Z,5.02
2023-01-03T22:06:40.573Z,4.88
2023-01-03T22:09:27.048Z,4.79
2023-01-03T22:11:53.631Z,4.71
2023-01-03T22:14:20.137Z,4.58
2023-01-03T22:16:46.709Z,4.59
2023-01-03T22:19:13.241Z,4.59
2023-01-03T22:21:39.875Z,4.67
2023-01-03T22:24:08.823Z,4.75
2023-01-03T22:26:35.355Z,4.65
2023-01-03T22:29:01.880Z,4.53
2023-01-03T22:31:28.422Z,4.62
2023-01-03T22:33:54.987Z,4.67
2023-01-03T22:36:21.569Z,4.59
2023-01-03T22:38:48.142Z,4.59
2023-01-03T22:41:15.417Z,4.73
2023-01-03T22:43:42.082Z,4.81
2023-01-03T22:46:09.173Z,4.82
2023-01-03T22:48:35.781Z,4.86
2023-01-03T22:51:05.845Z,4.93
2023-01-03T22:53:33.651Z,5.03
2023-01-03T22:56:00.445Z,5.13
2023-01-03T22:58:26.941Z,5.19
2023-01-03T23:00:53.505Z,5.31
2023-01-03T23:03:20.077Z,5.37
2023-01-03T23:05:46.602Z,5.27
2023-01-03T23:08:13.186Z,5.20
2023-01-03T23:10:39.727Z,5.22
2023-01-03T23:13:06.553Z,5.12
2023-01-03T23:15:33.145Z,5.13
2023-01-03T23:18:00.583Z,5.05
2023-01-03T23:20:34.233Z,5.02
2023-01-03T23:23:03.073Z,5.02
2023-01-03T23:25:31.004Z,5.10
2023-01-03T23:27:59.869Z,5.05
2023-01-03T23:30:26.791Z,5.19
2023-01-03T23:32:53.337Z,5.15
2023-01-03T23:35:19.959Z,5.26
2023-01-03T23:37:47.588Z,5.11
2023-01-03T23:40:14.461Z,5.19
2023-01-03T23:42:41.013Z,5.15
2023-01-03T23:45:07.692Z,5.26
2023-01-03T23:47:34.245Z,5.31
2023-01-03T23:50:00.770Z,5.27
2023-01-03T23:52:27.366Z,5.26
2023-01-03T23:55:00.019Z,5.22
2023-01-03T23:57:29.052Z,5.24
2023-01-03T23:59:55.617Z,5.27
